createdAt,value
2022-11-15T00:03:03.650Z,83.26
2022-11-15T00:08:24.372Z,83.27
2022-11-15T00:13:49.733Z,83.32
2022-11-15T00:19:10.355Z,83.26
2022-11-15T00:24:31.088Z,83.28
2022-11-15T00:29:51.468Z,83.36
2022-11-15T00:35:12.164Z,83.36
2022-11-15T00:40:32.793Z,83.35
2022-11-15T00:45:53.407Z,83.23
2022-11-15T00:51:14.046Z,83.29
2022-11-15T00:56:34.574Z,83.20
2022-11-15T01:01:55.291Z,83.12
2022-11-15T01:07:16.503Z,83.12
2022-11-15T01:12:37.575Z,83.12
2022-11-15T01:17:57.918Z,82.95
2022-11-15T01:23:18.707Z,82.78
2022-11-15T01:28:41.930Z,82.83
2022-11-15T01:34:02.401Z,82.70
2022-11-15T01:39:22.646Z,82.60
2022-11-15T01:44:50.421Z,82.47
2022-11-15T01:50:15.547Z,82.43
2022-11-15T01:55:36.239Z,82.40
2022-11-15T02:00:56.986Z,82.40
2022-11-15T02:06:18.305Z,82.64
2022-11-15T02:11:39.114Z,82.53
2022-11-15T02:17:21.332Z,82.56
2022-11-15T02:23:19.675Z,82.63
2022-11-15T02:28:45.835Z,82.75
2022-11-15T02:34:21.216Z,82.86
2022-11-15T02:40:00.901Z,82.72
2022-11-15T02:45:31.357Z,82.54
2022-11-15T02:50:52.758Z,82.62
2022-11-15T02:56:13.796Z,82.61
2022-11-15T03:02:02.378Z,82.43
2022-11-15T03:08:02.675Z,82.52
2022-11-15T03:13:33.303Z,82.71
2022-11-15T03:19:18.460Z,82.57
2022-11-15T03:24:39.900Z,82.47
2022-11-15T03:30:03.515Z,82.29
2022-11-15T03:35:26.752Z,82.25
2022-11-15T03:40:56.548Z,82.28
2022-11-15T03:46:42.316Z,82.60
2022-11-15T03:52:05.744Z,82.65
2022-11-15T03:57:26.429Z,82.81
2022-11-15T04:02:46.975Z,82.92
2022-11-15T04:08:07.670Z,83.02
2022-11-15T04:13:28.288Z,82.89
2022-11-15T04:19:09.145Z,83.05
2022-11-15T04:24:29.717Z,83.31
2022-11-15T04:29:50.366Z,83.26
2022-11-15T04:35:11.148Z,83.08
2022-11-15T04:40:33.147Z,82.98
2022-11-15T04:45:53.958Z,82.70
2022-11-15T04:51:15.401Z,82.45
2022-11-15T04:56:36.166Z,82.42
2022-11-15T05:01:56.782Z,82.39
2022-11-15T05:07:17.315Z,82.76
2022-11-15T05:12:38.115Z,83.29
2022-11-15T05:18:01.482Z,83.54
2022-11-15T05:23:21.905Z,83.29
2022-11-15T05:28:42.549Z,83.54
2022-11-15T05:34:05.811Z,83.57
2022-11-15T05:39:27.192Z,83.73
2022-11-15T05:44:50.786Z,83.86
2022-11-15T05:50:16.925Z,83.89
2022-11-15T05:55:40.142Z,83.66
2022-11-15T06:01:01.601Z,83.66
2022-11-15T06:06:22.449Z,83.65
2022-11-15T06:11:43.159Z,83.27
2022-11-15T06:17:08.597Z,83.45
2022-11-15T06:22:31.675Z,83.40
2022-11-15T06:27:53.976Z,83.75
2022-11-15T06:33:14.434Z,84.07
2022-11-15T06:38:35.101Z,84.24
2022-11-15T06:43:55.497Z,84.35
2022-11-15T06:49:15.947Z,84.21
2022-11-15T06:54:36.836Z,84.04
2022-11-15T06:59:57.440Z,84.06
2022-11-15T07:05:18.166Z,84.15
2022-11-15T07:10:38.993Z,84.13
2022-11-15T07:16:03.921Z,83.72
2022-11-15T07:21:27.544Z,82.97
2022-11-15T07:26:48.662Z,82.78
2022-11-15T07:32:10.437Z,82.61
2022-11-15T07:37:30.801Z,82.33
2022-11-15T07:42:53.896Z,82.18
2022-11-15T07:48:14.343Z,82.04
2022-11-15T07:53:35.078Z,81.81
2022-11-15T07:58:56.205Z,80.65
2022-11-15T08:04:16.730Z,79.38
2022-11-15T08:09:37.459Z,79.03
2022-11-15T08:14:57.914Z,79.68
2022-11-15T08:20:20.166Z,78.72
2022-11-15T08:25:40.847Z,78.55
2022-11-15T08:31:02.193Z,78.42
2022-11-15T08:36:22.848Z,79.07
2022-11-15T08:41:43.947Z,77.89
2022-11-15T08:47:04.463Z,76.70
2022-11-15T08:52:25.083Z,76.37
2022-11-15T08:57:46.292Z,75.42
2022-11-15T09:03:08.310Z,75.85
2022-11-15T09:08:47.000Z,75.16
2022-11-15T09:14:13.886Z,73.85
2022-11-15T09:19:34.688Z,73.83
2022-11-15T09:24:55.075Z,73.22
2022-11-15T09:30:15.817Z,72.84
2022-11-15T09:35:36.088Z,75.14
2022-11-15T09:41:15.384Z,75.55
2022-11-15T09:46:46.606Z,74.58
2022-11-15T09:52:24.206Z,73.68
2022-11-15T09:57:34.189Z,72.44
2022-11-15T10:02:48.550Z,71.74
2022-11-15T10:08:18.119Z,71.30
2022-11-15T10:13:22.604Z,70.91
2022-11-15T10:18:53.976Z,70.62
2022-11-15T10:23:56.070Z,70.53
2022-11-15T10:28:58.034Z,70.65
2022-11-15T10:34:15.284Z,70.45
2022-11-15T10:39:17.129Z,70.82
2022-11-15T10:44:30.638Z,69.63
2022-11-15T10:49:34.120Z,69.54
2022-11-15T10:54:41.677Z,69.23
2022-11-15T10:59:50.770Z,70.82
2022-11-15T11:04:53.283Z,70.42
2022-11-15T11:10:49.342Z,69.46
2022-11-15T11:15:46.578Z,70.79
2022-11-15T11:21:04.228Z,70.13
2022-11-15T11:26:08.839Z,70.76
2022-11-15T11:31:22.854Z,69.27
2022-11-15T11:36:59.193Z,69.77
2022-11-15T11:42:24.228Z,69.54
2022-11-15T11:47:34.800Z,68.48
2022-11-15T11:52:51.013Z,67.32
2022-11-15T11:58:14.284Z,66.16
2022-11-15T12:03:16.217Z,66.80
2022-11-15T12:08:27.449Z,65.19
2022-11-15T12:13:35.707Z,65.28
2022-11-15T12:18:38.992Z,64.64
2022-11-15T12:23:51.209Z,64.12
2022-11-15T12:29:16.345Z,64.40
2022-11-15T12:34:21.251Z,64.99
2022-11-15T12:40:03.974Z,65.21
2022-11-15T12:45:32.748Z,65.50
2022-11-15T12:50:53.134Z,65.82
2022-11-15T12:56:04.129Z,65.91
2022-11-15T13:01:08.903Z,66.03
2022-11-15T13:07:00.166Z,66.25
2022-11-15T13:12:35.427Z,66.36
2022-11-15T13:17:41.452Z,66.49
2022-11-15T13:22:51.930Z,66.63
2022-11-15T13:27:55.631Z,66.73
2022-11-15T13:33:02.047Z,66.95
2022-11-15T13:38:05.797Z,67.13
2022-11-15T13:43:36.871Z,67.27
2022-11-15T13:48:40.173Z,67.27
2022-11-15T13:53:47.661Z,67.20
2022-11-15T13:58:49.563Z,66.64
2022-11-15T14:03:59.216Z,66.81
2022-11-15T14:09:10.150Z,66.63
2022-11-15T14:14:16.493Z,66.88
2022-11-15T14:19:21.114Z,67.82
2022-11-15T14:24:23.015Z,68.61
2022-11-15T14:29:33.555Z,68.90
2022-11-15T14:34:35.535Z,69.27
2022-11-15T14:39:37.475Z,69.61
2022-11-15T14:44:42.302Z,69.95
2022-11-15T14:49:48.301Z,70.03
2022-11-15T14:54:50.163Z,70.25
2022-11-15T14:59:52.110Z,70.65
2022-11-15T15:04:54.768Z,71.11
2022-11-15T15:10:24.612Z,71.44
2022-11-15T15:15:26.353Z,71.71
2022-11-15T15:20:28.874Z,71.97
2022-11-15T15:25:36.004Z,72.22
2022-11-15T15:30:37.810Z,72.61
2022-11-15T15:35:39.733Z,72.96
2022-11-15T15:40:41.545Z,73.24
2022-11-15T15:45:43.704Z,73.71
2022-11-15T15:50:46.181Z,74.10
2022-11-15T15:55:48.008Z,74.27
2022-11-15T16:00:49.832Z,74.55
2022-11-15T16:05:51.968Z,75.11
2022-11-15T16:10:53.941Z,75.39
2022-11-15T16:15:56.159Z,75.56
2022-11-15T16:20:58.110Z,75.77
2022-11-15T16:25:59.981Z,75.94
2022-11-15T16:31:06.838Z,76.00
2022-11-15T16:36:30.337Z,76.14
2022-11-15T16:41:33.300Z,76.09
2022-11-15T16:46:35.592Z,76.11
2022-11-15T16:51:38.184Z,76.05
2022-11-15T16:56:40.453Z,76.00
2022-11-15T17:01:50.702Z,75.68
2022-11-15T17:06:53.309Z,75.38
2022-11-15T17:11:55.220Z,74.99
2022-11-15T17:16:57.068Z,74.82
2022-11-15T17:21:58.989Z,74.77
2022-11-15T17:27:00.854Z,74.69
2022-11-15T17:32:02.827Z,74.49
2022-11-15T17:37:04.673Z,74.42
2022-11-15T17:42:06.498Z,74.27
2022-11-15T17:47:08.658Z,74.16
2022-11-15T17:52:10.611Z,74.24
2022-11-15T17:57:12.508Z,74.33
2022-11-15T18:02:14.557Z,74.27
2022-11-15T18:07:18.849Z,74.19
2022-11-15T18:12:20.691Z,74.14
2022-11-15T18:17:23.924Z,74.17
2022-11-15T18:22:25.747Z,74.25
2022-11-15T18:27:27.569Z,74.45
2022-11-15T18:32:29.372Z,74.60
2022-11-15T18:37:31.193Z,74.65
2022-11-15T18:42:33.123Z,74.66
2022-11-15T18:47:35.027Z,74.70
2022-11-15T18:52:36.798Z,74.71
2022-11-15T18:57:38.656Z,74.72
2022-11-15T19:02:40.518Z,74.69
2022-11-15T19:07:42.376Z,74.38
2022-11-15T19:12:44.212Z,74.40
2022-11-15T19:17:46.059Z,74.33
2022-11-15T19:22:47.885Z,74.49
2022-11-15T19:27:49.787Z,74.51
2022-11-15T19:32:51.927Z,74.61
2022-11-15T19:37:53.821Z,74.62
2022-11-15T19:42:55.652Z,74.65
2022-11-15T19:47:59.655Z,74.63
2022-11-15T19:53:01.452Z,74.58
2022-11-15T19:58:03.339Z,74.45
2022-11-15T20:03:05.131Z,74.43
2022-11-15T20:08:07.069Z,74.61
2022-11-15T20:13:08.907Z,74.48
2022-11-15T20:18:10.716Z,74.59
2022-11-15T20:23:13.712Z,74.76
2022-11-15T20:28:19.352Z,75.67
2022-11-15T20:33:22.791Z,76.01
2022-11-15T20:38:24.663Z,75.38
2022-11-15T20:43:26.788Z,75.47
2022-11-15T20:48:28.684Z,75.57
2022-11-15T20:53:31.696Z,75.76
2022-11-15T20:58:35.078Z,75.91
2022-11-15T21:03:37.714Z,76.04
2022-11-15T21:08:58.362Z,76.09
2022-11-15T21:14:05.017Z,76.08
2022-11-15T21:19:10.272Z,76.18
2022-11-15T21:24:12.109Z,76.12
2022-11-15T21:29:17.259Z,76.19
2022-11-15T21:34:19.907Z,76.20
2022-11-15T21:39:21.831Z,76.26
2022-11-15T21:44:23.766Z,76.34
2022-11-15T21:49:26.020Z,76.63
2022-11-15T21:54:27.883Z,76.49
2022-11-15T21:59:29.705Z,76.94
2022-11-15T22:04:31.657Z,77.67
2022-11-15T22:09:37.441Z,77.86
2022-11-15T22:14:40.286Z,77.76
2022-11-15T22:19:52.265Z,77.68
2022-11-15T22:24:54.953Z,77.52
2022-11-15T22:29:56.870Z,77.45
2022-11-15T22:34:58.804Z,77.36
2022-11-15T22:40:00.733Z,77.24
2022-11-15T22:45:02.672Z,77.37
2022-11-15T22:50:06.555Z,77.36
2022-11-15T22:55:08.898Z,77.20
2022-11-15T23:00:16.357Z,77.06
2022-11-15T23:05:18.347Z,76.78
2022-11-15T23:10:38.963Z,77.00
2022-11-15T23:15:59.566Z,77.32
2022-11-15T23:21:12.088Z,77.30
2022-11-15T23:26:14.090Z,77.42
2022-11-15T23:31:34.767Z,77.02
2022-11-15T23:36:36.785Z,77.23
2022-11-15T23:41:38.766Z,77.55
2022-11-15T23:46:40.731Z,77.48
2022-11-15T23:51:42.682Z,77.04
2022-11-15T23:56:44.630Z,76.90
